sensor_id;sensor_type;location;lat;lon;timestamp;temperature;humidity
40253;DHT22;25972;51.854;4.534;2023-12-20T00:02:01;6.80;99.90
40253;DHT22;25972;51.854;4.534;2023-12-20T00:04:28;6.80;99.90
40253;DHT22;25972;51.854;4.534;2023-12-20T00:06:54;6.80;99.90
40253;DHT22;25972;51.854;4.534;2023-12-20T00:09:20;6.80;99.90
40253;DHT22;25972;51.854;4.534;2023-12-20T00:11:50;6.80;99.90
40253;DHT22;25972;51.854;4.534;2023-12-20T00:14:17;6.80;99.90
40253;DHT22;25972;51.854;4.534;2023-12-20T00:16:43;6.70;99.90
40253;DHT22;25972;51.854;4.534;2023-12-20T00:19:09;6.80;99.90
40253;DHT22;25972;51.854;4.534;2023-12-20T00:21:35;6.80;99.90
40253;DHT22;25972;51.854;4.534;2023-12-20T00:24:01;6.80;99.90
40253;DHT22;25972;51.854;4.534;2023-12-20T00:26:27;6.80;99.90
40253;DHT22;25972;51.854;4.534;2023-12-20T00:28:54;6.80;99.90
40253;DHT22;25972;51.854;4.534;2023-12-20T00:31:21;6.80;99.90
40253;DHT22;25972;51.854;4.534;2023-12-20T00:33:47;6.80;99.90
40253;DHT22;25972;51.854;4.534;2023-12-20T00:36:13;6.80;99.90
40253;DHT22;25972;51.854;4.534;2023-12-20T00:38:39;6.80;99.90
40253;DHT22;25972;51.854;4.534;2023-12-20T00:41:05;6.70;99.90
40253;DHT22;25972;51.854;4.534;2023-12-20T00:43:31;6.80;99.90
40253;DHT22;25972;51.854;4.534;2023-12-20T00:45:57;6.70;99.90
40253;DHT22;25972;51.854;4.534;2023-12-20T00:48:26;6.70;99.90
40253;DHT22;25972;51.854;4.534;2023-12-20T00:50:53;6.80;99.90
40253;DHT22;25972;51.854;4.534;2023-12-20T00:53:19;6.70;99.90
40253;DHT22;25972;51.854;4.534;2023-12-20T00:55:45;6.80;99.90
40253;DHT22;25972;51.854;4.534;2023-12-20T00:58:11;6.70;99.90
40253;DHT22;25972;51.854;4.534;2023-12-20T01:00:37;6.70;99.90
40253;DHT22;25972;51.854;4.534;2023-12-20T01:03:03;6.80;99.90
40253;DHT22;25972;51.854;4.534;2023-12-20T01:05:30;6.80;99.90
40253;DHT22;25972;51.854;4.534;2023-12-20T01:07:56;6.80;99.90
40253;DHT22;25972;51.854;4.534;2023-12-20T01:10:22;6.90;99.90
40253;DHT22;25972;51.854;4.534;2023-12-20T01:12:49;6.90;99.90
40253;DHT22;25972;51.854;4.534;2023-12-20T01:15:15;6.90;99.90
40253;DHT22;25972;51.854;4.534;2023-12-20T01:17:43;7.00;99.90
40253;DHT22;25972;51.854;4.534;2023-12-20T01:20:10;7.00;99.90
40253;DHT22;25972;51.854;4.534;2023-12-20T01:22:37;7.00;99.90
40253;DHT22;25972;51.854;4.534;2023-12-20T01:25:04;7.00;99.90
40253;DHT22;25972;51.854;4.534;2023-12-20T01:27:30;7.00;99.90
40253;DHT22;25972;51.854;4.534;2023-12-20T01:29:56;7.00;99.90
40253;DHT22;25972;51.854;4.534;2023-12-20T01:32:22;7.10;99.90
40253;DHT22;25972;51.854;4.534;2023-12-20T01:34:48;7.10;99.90
40253;DHT22;25972;51.854;4.534;2023-12-20T01:37:14;7.20;99.90
40253;DHT22;25972;51.854;4.534;2023-12-20T01:39:42;7.20;99.90
40253;DHT22;25972;51.854;4.534;2023-12-20T01:42:08;7.20;99.90
40253;DHT22;25972;51.854;4.534;2023-12-20T01:44:34;7.20;99.90
40253;DHT22;25972;51.854;4.534;2023-12-20T01:47:00;7.20;99.90
40253;DHT22;25972;51.854;4.534;2023-12-20T01:49:26;7.30;99.90
40253;DHT22;25972;51.854;4.534;2023-12-20T01:51:52;7.30;99.90
40253;DHT22;25972;51.854;4.534;2023-12-20T01:54:19;7.30;99.90
40253;DHT22;25972;51.854;4.534;2023-12-20T01:56:49;7.30;99.90
40253;DHT22;25972;51.854;4.534;2023-12-20T01:59:15;7.30;99.90
40253;DHT22;25972;51.854;4.534;2023-12-20T02:01:42;7.30;99.90
40253;DHT22;25972;51.854;4.534;2023-12-20T02:04:08;7.30;99.90
40253;DHT22;25972;51.854;4.534;2023-12-20T02:06:34;7.30;99.90
40253;DHT22;25972;51.854;4.534;2023-12-20T02:09:01;7.30;99.90
40253;DHT22;25972;51.854;4.534;2023-12-20T02:11:27;7.30;99.90
40253;DHT22;25972;51.854;4.534;2023-12-20T02:13:55;7.30;99.90
40253;DHT22;25972;51.854;4.534;2023-12-20T02:16:22;7.30;99.90
40253;DHT22;25972;51.854;4.534;2023-12-20T02:18:54;7.30;99.90
40253;DHT22;25972;51.854;4.534;2023-12-20T02:21:25;7.30;99.90
40253;DHT22;25972;51.854;4.534;2023-12-20T02:23:53;7.30;99.90
40253;DHT22;25972;51.854;4.534;2023-12-20T02:26:19;7.30;99.90
40253;DHT22;25972;51.854;4.534;2023-12-20T02:28:45;7.40;99.90
40253;DHT22;25972;51.854;4.534;2023-12-20T02:31:11;7.40;99.90
40253;DHT22;25972;51.854;4.534;2023-12-20T02:33:37;7.30;99.90
40253;DHT22;25972;51.854;4.534;2023-12-20T02:36:06;7.30;99.90
40253;DHT22;25972;51.854;4.534;2023-12-20T02:38:33;7.30;99.90
40253;DHT22;25972;51.854;4.534;2023-12-20T02:41:00;7.40;99.90
40253;DHT22;25972;51.854;4.534;2023-12-20T02:43:25;7.30;99.90
40253;DHT22;25972;51.854;4.534;2023-12-20T02:45:51;7.30;99.90
40253;DHT22;25972;51.854;4.534;2023-12-20T02:48:18;7.40;99.90
40253;DHT22;25972;51.854;4.534;2023-12-20T02:50:45;7.30;99.90
40253;DHT22;25972;51.854;4.534;2023-12-20T02:53:12;7.30;99.90
40253;DHT22;25972;51.854;4.534;2023-12-20T02:55:39;7.30;99.90
40253;DHT22;25972;51.854;4.534;2023-12-20T02:58:05;7.30;99.90
40253;DHT22;25972;51.854;4.534;2023-12-20T03:00:31;7.40;99.90
40253;DHT22;25972;51.854;4.534;2023-12-20T03:02:57;7.40;99.90
40253;DHT22;25972;51.854;4.534;2023-12-20T03:05:25;7.40;99.90
40253;DHT22;25972;51.854;4.534;2023-12-20T03:07:51;7.40;99.90
40253;DHT22;25972;51.854;4.534;2023-12-20T03:10:18;7.40;99.90
40253;DHT22;25972;51.854;4.534;2023-12-20T03:12:46;7.40;99.90
40253;DHT22;25972;51.854;4.534;2023-12-20T03:15:12;7.40;99.90
40253;DHT22;25972;51.854;4.534;2023-12-20T03:17:38;7.40;99.90
40253;DHT22;25972;51.854;4.534;2023-12-20T03:20:05;7.40;99.90
40253;DHT22;25972;51.854;4.534;2023-12-20T03:22:31;7.40;99.90
40253;DHT22;25972;51.854;4.534;2023-12-20T03:24:57;7.50;99.90
40253;DHT22;25972;51.854;4.534;2023-12-20T03:27:23;7.50;99.90
40253;DHT22;25972;51.854;4.534;2023-12-20T03:29:52;7.40;99.90
40253;DHT22;25972;51.854;4.534;2023-12-20T03:32:18;7.50;99.90
40253;DHT22;25972;51.854;4.534;2023-12-20T03:34:44;7.50;99.90
40253;DHT22;25972;51.854;4.534;2023-12-20T03:37:10;7.40;99.90
40253;DHT22;25972;51.854;4.534;2023-12-20T03:39:37;7.40;99.90
40253;DHT22;25972;51.854;4.534;2023-12-20T03:42:03;7.40;99.90
40253;DHT22;25972;51.854;4.534;2023-12-20T03:44:29;7.40;99.90
40253;DHT22;25972;51.854;4.534;2023-12-20T03:46:56;7.40;99.90
40253;DHT22;25972;51.854;4.534;2023-12-20T03:49:22;7.50;99.90
40253;DHT22;25972;51.854;4.534;2023-12-20T03:51:48;7.40;99.90
40253;DHT22;25972;51.854;4.534;2023-12-20T03:54:14;7.40;99.90
40253;DHT22;25972;51.854;4.534;2023-12-20T03:56:40;7.50;99.90
40253;DHT22;25972;51.854;4.534;2023-12-20T03:59:06;7.50;99.90
40253;DHT22;25972;51.854;4.534;2023-12-20T04:01:32;7.40;99.90
40253;DHT22;25972;51.854;4.534;2023-12-20T04:04:02;7.40;99.90
40253;DHT22;25972;51.854;4.534;2023-12-20T04:06:28;7.30;99.90
40253;DHT22;25972;51.854;4.534;2023-12-20T04:08:54;7.20;99.90
40253;DHT22;25972;51.854;4.534;2023-12-20T04:11:20;7.30;99.90
40253;DHT22;25972;51.854;4.534;2023-12-20T04:13:46;7.30;99.90
40253;DHT22;25972;51.854;4.534;2023-12-20T04:16:12;7.30;99.90
40253;DHT22;25972;51.854;4.534;2023-12-20T04:18:38;7.30;99.90
40253;DHT22;25972;51.854;4.534;2023-12-20T04:21:05;7.30;99.90
40253;DHT22;25972;51.854;4.534;2023-12-20T04:23:32;7.30;99.90
40253;DHT22;25972;51.854;4.534;2023-12-20T04:25:58;7.30;99.90
40253;DHT22;25972;51.854;4.534;2023-12-20T04:28:24;7.20;99.90
40253;DHT22;25972;51.854;4.534;2023-12-20T04:30:54;7.30;99.90
40253;DHT22;25972;51.854;4.534;2023-12-20T04:33:20;7.20;99.90
40253;DHT22;25972;51.854;4.534;2023-12-20T04:35:46;7.30;99.90
40253;DHT22;25972;51.854;4.534;2023-12-20T04:38:13;7.30;99.90
40253;DHT22;25972;51.854;4.534;2023-12-20T04:40:40;7.20;99.90
40253;DHT22;25972;51.854;4.534;2023-12-20T04:43:06;7.20;99.90
40253;DHT22;25972;51.854;4.534;2023-12-20T04:45:32;7.30;99.90
40253;DHT22;25972;51.854;4.534;2023-12-20T04:47:58;7.20;99.90
40253;DHT22;25972;51.854;4.534;2023-12-20T04:50:24;7.20;99.90
40253;DHT22;25972;51.854;4.534;2023-12-20T04:52:51;7.20;99.90
40253;DHT22;25972;51.854;4.534;2023-12-20T04:55:18;7.10;99.90
40253;DHT22;25972;51.854;4.534;2023-12-20T04:57:44;7.10;99.90
40253;DHT22;25972;51.854;4.534;2023-12-20T05:00:11;7.10;99.90
40253;DHT22;25972;51.854;4.534;2023-12-20T05:02:38;7.00;99.90
40253;DHT22;25972;51.854;4.534;2023-12-20T05:05:04;7.10;99.90
40253;DHT22;25972;51.854;4.534;2023-12-20T05:07:30;7.00;99.90
40253;DHT22;25972;51.854;4.534;2023-12-20T05:09:56;7.00;99.90
40253;DHT22;25972;51.854;4.534;2023-12-20T05:12:24;7.00;99.90
40253;DHT22;25972;51.854;4.534;2023-12-20T05:14:52;7.00;99.90
40253;DHT22;25972;51.854;4.534;2023-12-20T05:17:18;7.00;99.90
40253;DHT22;25972;51.854;4.534;2023-12-20T05:19:46;7.00;99.90
40253;DHT22;25972;51.854;4.534;2023-12-20T05:22:12;7.00;99.90
40253;DHT22;25972;51.854;4.534;2023-12-20T05:24:38;7.00;99.90
40253;DHT22;25972;51.854;4.534;2023-12-20T05:27:04;7.00;99.90
40253;DHT22;25972;51.854;4.534;2023-12-20T05:29:32;7.00;99.90
40253;DHT22;25972;51.854;4.534;2023-12-20T05:31:58;7.00;99.90
40253;DHT22;25972;51.854;4.534;2023-12-20T05:34:24;7.10;99.90
40253;DHT22;25972;51.854;4.534;2023-12-20T05:36:50;7.10;99.90
40253;DHT22;25972;51.854;4.534;2023-12-20T05:39:16;7.00;99.90
40253;DHT22;25972;51.854;4.534;2023-12-20T05:41:42;7.00;99.90
40253;DHT22;25972;51.854;4.534;2023-12-20T05:44:08;7.00;99.90
40253;DHT22;25972;51.854;4.534;2023-12-20T05:46:35;7.00;99.90
40253;DHT22;25972;51.854;4.534;2023-12-20T05:49:02;7.00;99.90
40253;DHT22;25972;51.854;4.534;2023-12-20T05:51:28;7.00;99.90
40253;DHT22;25972;51.854;4.534;2023-12-20T05:53:54;7.00;99.90
40253;DHT22;25972;51.854;4.534;2023-12-20T05:56:20;7.00;99.90
40253;DHT22;25972;51.854;4.534;2023-12-20T05:58:46;7.00;99.90
40253;DHT22;25972;51.854;4.534;2023-12-20T06:01:12;7.00;99.90
40253;DHT22;25972;51.854;4.534;2023-12-20T06:03:42;7.10;99.90
40253;DHT22;25972;51.854;4.534;2023-12-20T06:06:09;7.10;99.90
40253;DHT22;25972;51.854;4.534;2023-12-20T06:08:36;7.00;99.90
40253;DHT22;25972;51.854;4.534;2023-12-20T06:11:02;7.10;99.90
40253;DHT22;25972;51.854;4.534;2023-12-20T06:13:28;7.00;99.90
40253;DHT22;25972;51.854;4.534;2023-12-20T06:15:54;7.00;99.90
40253;DHT22;25972;51.854;4.534;2023-12-20T06:18:20;7.10;99.90
40253;DHT22;25972;51.854;4.534;2023-12-20T06:20:48;7.10;99.90
40253;DHT22;25972;51.854;4.534;2023-12-20T06:23:14;7.00;99.90
40253;DHT22;25972;51.854;4.534;2023-12-20T06:25:40;7.10;99.90
40253;DHT22;25972;51.854;4.534;2023-12-20T06:28:06;7.10;99.90
40253;DHT22;25972;51.854;4.534;2023-12-20T06:30:32;7.20;99.90
40253;DHT22;25972;51.854;4.534;2023-12-20T06:32:58;7.20;99.90
40253;DHT22;25972;51.854;4.534;2023-12-20T06:35:25;7.20;99.90
40253;DHT22;25972;51.854;4.534;2023-12-20T06:37:53;7.30;99.90
40253;DHT22;25972;51.854;4.534;2023-12-20T06:40:19;7.30;99.90
40253;DHT22;25972;51.854;4.534;2023-12-20T06:42:45;7.30;99.90
40253;DHT22;25972;51.854;4.534;2023-12-20T06:45:12;7.30;99.90
40253;DHT22;25972;51.854;4.534;2023-12-20T06:47:38;7.30;99.90
40253;DHT22;25972;51.854;4.534;2023-12-20T06:50:05;7.30;99.90
40253;DHT22;25972;51.854;4.534;2023-12-20T06:52:31;7.40;99.90
40253;DHT22;25972;51.854;4.534;2023-12-20T06:54:58;7.40;99.90
40253;DHT22;25972;51.854;4.534;2023-12-20T06:57:24;7.40;99.90
40253;DHT22;25972;51.854;4.534;2023-12-20T06:59:51;7.40;99.90
40253;DHT22;25972;51.854;4.534;2023-12-20T07:02:18;7.40;99.90
40253;DHT22;25972;51.854;4.534;2023-12-20T07:04:44;7.40;99.90
40253;DHT22;25972;51.854;4.534;2023-12-20T07:07:10;7.50;99.90
40253;DHT22;25972;51.854;4.534;2023-12-20T07:09:36;7.40;99.90
40253;DHT22;25972;51.854;4.534;2023-12-20T07:12:04;7.50;99.90
40253;DHT22;25972;51.854;4.534;2023-12-20T07:14:30;7.50;99.90
40253;DHT22;25972;51.854;4.534;2023-12-20T07:16:56;7.50;99.90
40253;DHT22;25972;51.854;4.534;2023-12-20T07:19:23;7.50;99.90
40253;DHT22;25972;51.854;4.534;2023-12-20T07:21:49;7.40;99.90
40253;DHT22;25972;51.854;4.534;2023-12-20T07:24:15;7.40;99.90
40253;DHT22;25972;51.854;4.534;2023-12-20T07:26:41;7.50;99.90
40253;DHT22;25972;51.854;4.534;2023-12-20T07:29:08;7.40;99.90
40253;DHT22;25972;51.854;4.534;2023-12-20T07:31:34;7.40;99.90
40253;DHT22;25972;51.854;4.534;2023-12-20T07:34:00;7.40;99.90
40253;DHT22;25972;51.854;4.534;2023-12-20T07:36:27;7.40;99.90
40253;DHT22;25972;51.854;4.534;2023-12-20T07:38:53;7.40;99.90
40253;DHT22;25972;51.854;4.534;2023-12-20T07:41:19;7.30;99.90
40253;DHT22;25972;51.854;4.534;2023-12-20T07:43:48;7.30;99.90
40253;DHT22;25972;51.854;4.534;2023-12-20T07:46:16;7.20;99.90
40253;DHT22;25972;51.854;4.534;2023-12-20T07:48:43;7.20;99.90
40253;DHT22;25972;51.854;4.534;2023-12-20T07:51:10;7.20;99.90
40253;DHT22;25972;51.854;4.534;2023-12-20T07:53:36;7.20;99.90
40253;DHT22;25972;51.854;4.534;2023-12-20T07:56:13;7.20;99.90
40253;DHT22;25972;51.854;4.534;2023-12-20T07:58:40;7.20;99.90
40253;DHT22;25972;51.854;4.534;2023-12-20T08:01:06;7.20;99.90
40253;DHT22;25972;51.854;4.534;2023-12-20T08:03:34;7.30;99.90
40253;DHT22;25972;51.854;4.534;2023-12-20T08:06:00;7.30;99.90
40253;DHT22;25972;51.854;4.534;2023-12-20T08:08:26;7.40;99.90
40253;DHT22;25972;51.854;4.534;2023-12-20T08:10:52;7.40;99.90
40253;DHT22;25972;51.854;4.534;2023-12-20T08:13:18;7.50;99.90
40253;DHT22;25972;51.854;4.534;2023-12-20T08:15:44;7.40;99.90
40253;DHT22;25972;51.854;4.534;2023-12-20T08:18:10;7.50;99.90
40253;DHT22;25972;51.854;4.534;2023-12-20T08:20:37;7.50;99.90
40253;DHT22;25972;51.854;4.534;2023-12-20T08:23:03;7.50;99.90
40253;DHT22;25972;51.854;4.534;2023-12-20T08:25:29;7.60;99.90
40253;DHT22;25972;51.854;4.534;2023-12-20T08:27:55;7.60;99.90
40253;DHT22;25972;51.854;4.534;2023-12-20T08:30:21;7.60;99.90
40253;DHT22;25972;51.854;4.534;2023-12-20T08:32:47;7.70;99.90
40253;DHT22;25972;51.854;4.534;2023-12-20T08:35:14;7.70;99.90
40253;DHT22;25972;51.854;4.534;2023-12-20T08:37:41;7.80;99.90
40253;DHT22;25972;51.854;4.534;2023-12-20T08:40:08;7.90;99.90
40253;DHT22;25972;51.854;4.534;2023-12-20T08:42:34;7.90;99.90
40253;DHT22;25972;51.854;4.534;2023-12-20T08:45:01;8.00;99.90
40253;DHT22;25972;51.854;4.534;2023-12-20T08:47:27;8.00;99.90
40253;DHT22;25972;51.854;4.534;2023-12-20T08:49:55;8.00;99.90
40253;DHT22;25972;51.854;4.534;2023-12-20T08:52:26;8.00;99.90
40253;DHT22;25972;51.854;4.534;2023-12-20T08:54:56;8.10;99.90
40253;DHT22;25972;51.854;4.534;2023-12-20T08:57:22;8.10;99.90
40253;DHT22;25972;51.854;4.534;2023-12-20T08:59:51;8.20;99.90
40253;DHT22;25972;51.854;4.534;2023-12-20T09:02:17;8.20;99.90
40253;DHT22;25972;51.854;4.534;2023-12-20T09:04:43;8.20;99.90
40253;DHT22;25972;51.854;4.534;2023-12-20T09:07:21;8.30;99.90
40253;DHT22;25972;51.854;4.534;2023-12-20T09:09:47;8.30;99.90
40253;DHT22;25972;51.854;4.534;2023-12-20T09:12:14;8.30;99.90
40253;DHT22;25972;51.854;4.534;2023-12-20T09:14:40;8.30;99.90
40253;DHT22;25972;51.854;4.534;2023-12-20T09:17:06;8.40;99.90
40253;DHT22;25972;51.854;4.534;2023-12-20T09:19:34;8.40;99.90
40253;DHT22;25972;51.854;4.534;2023-12-20T09:22:01;8.40;99.90
40253;DHT22;25972;51.854;4.534;2023-12-20T09:24:27;8.40;99.90
40253;DHT22;25972;51.854;4.534;2023-12-20T09:26:53;8.40;99.90
40253;DHT22;25972;51.854;4.534;2023-12-20T09:29:21;8.40;99.90
40253;DHT22;25972;51.854;4.534;2023-12-20T09:31:47;8.40;99.90
40253;DHT22;25972;51.854;4.534;2023-12-20T09:34:14;8.50;99.90
40253;DHT22;25972;51.854;4.534;2023-12-20T09:36:40;8.50;99.90
40253;DHT22;25972;51.854;4.534;2023-12-20T09:39:12;8.50;99.90
40253;DHT22;25972;51.854;4.534;2023-12-20T09:41:41;8.50;99.90
40253;DHT22;25972;51.854;4.534;2023-12-20T09:44:08;8.50;99.90
40253;DHT22;25972;51.854;4.534;2023-12-20T09:46:44;8.50;99.90
40253;DHT22;25972;51.854;4.534;2023-12-20T09:49:10;8.50;99.90
40253;DHT22;25972;51.854;4.534;2023-12-20T09:51:36;8.50;99.90
40253;DHT22;25972;51.854;4.534;2023-12-20T09:54:03;8.50;99.90
40253;DHT22;25972;51.854;4.534;2023-12-20T09:56:30;8.60;99.90
40253;DHT22;25972;51.854;4.534;2023-12-20T09:58:56;8.60;99.90
40253;DHT22;25972;51.854;4.534;2023-12-20T10:01:23;8.60;99.90
40253;DHT22;25972;51.854;4.534;2023-12-20T10:03:51;8.60;99.90
40253;DHT22;25972;51.854;4.534;2023-12-20T10:06:19;8.70;99.90
40253;DHT22;25972;51.854;4.534;2023-12-20T10:08:45;8.70;99.90
40253;DHT22;25972;51.854;4.534;2023-12-20T10:11:11;8.80;99.90
40253;DHT22;25972;51.854;4.534;2023-12-20T10:13:39;8.80;99.90
40253;DHT22;25972;51.854;4.534;2023-12-20T10:16:06;8.90;99.90
40253;DHT22;25972;51.854;4.534;2023-12-20T10:18:33;8.90;99.90
40253;DHT22;25972;51.854;4.534;2023-12-20T10:21:00;8.90;99.90
40253;DHT22;25972;51.854;4.534;2023-12-20T10:23:26;8.90;99.90
40253;DHT22;25972;51.854;4.534;2023-12-20T10:25:59;8.90;99.90
40253;DHT22;25972;51.854;4.534;2023-12-20T10:28:26;8.90;99.90
40253;DHT22;25972;51.854;4.534;2023-12-20T10:30:53;8.90;99.90
40253;DHT22;25972;51.854;4.534;2023-12-20T10:33:26;9.00;99.90
40253;DHT22;25972;51.854;4.534;2023-12-20T10:35:53;9.00;99.90
40253;DHT22;25972;51.854;4.534;2023-12-20T10:38:21;9.00;99.90
40253;DHT22;25972;51.854;4.534;2023-12-20T10:40:48;9.00;99.90
40253;DHT22;25972;51.854;4.534;2023-12-20T10:43:15;9.00;99.90
40253;DHT22;25972;51.854;4.534;2023-12-20T10:45:42;9.10;99.90
40253;DHT22;25972;51.854;4.534;2023-12-20T10:48:10;9.10;99.90
40253;DHT22;25972;51.854;4.534;2023-12-20T10:50:38;9.10;99.90
40253;DHT22;25972;51.854;4.534;2023-12-20T10:53:04;9.10;99.90
40253;DHT22;25972;51.854;4.534;2023-12-20T10:55:36;9.10;99.90
40253;DHT22;25972;51.854;4.534;2023-12-20T10:58:07;9.10;99.90
40253;DHT22;25972;51.854;4.534;2023-12-20T11:00:37;9.20;99.90
40253;DHT22;25972;51.854;4.534;2023-12-20T11:03:05;9.10;99.90
40253;DHT22;25972;51.854;4.534;2023-12-20T11:05:38;9.20;99.90
40253;DHT22;25972;51.854;4.534;2023-12-20T11:08:11;9.10;99.90
40253;DHT22;25972;51.854;4.534;2023-12-20T11:10:43;9.20;99.90
40253;DHT22;25972;51.854;4.534;2023-12-20T11:13:20;9.20;99.90
40253;DHT22;25972;51.854;4.534;2023-12-20T11:15:46;9.20;99.90
40253;DHT22;25972;51.854;4.534;2023-12-20T11:18:12;9.30;99.90
40253;DHT22;25972;51.854;4.534;2023-12-20T11:20:40;9.30;99.90
40253;DHT22;25972;51.854;4.534;2023-12-20T11:23:06;9.30;99.90
40253;DHT22;25972;51.854;4.534;2023-12-20T11:25:47;9.30;99.90
40253;DHT22;25972;51.854;4.534;2023-12-20T11:28:14;9.40;99.90
40253;DHT22;25972;51.854;4.534;2023-12-20T11:30:46;9.40;99.90
40253;DHT22;25972;51.854;4.534;2023-12-20T11:33:13;9.40;99.90
40253;DHT22;25972;51.854;4.534;2023-12-20T11:35:40;9.40;99.90
40253;DHT22;25972;51.854;4.534;2023-12-20T11:38:08;9.40;99.90
40253;DHT22;25972;51.854;4.534;2023-12-20T11:40:35;9.50;99.90
40253;DHT22;25972;51.854;4.534;2023-12-20T11:43:04;9.50;99.90
40253;DHT22;25972;51.854;4.534;2023-12-20T11:45:34;9.50;99.90
40253;DHT22;25972;51.854;4.534;2023-12-20T11:48:02;9.60;99.90
40253;DHT22;25972;51.854;4.534;2023-12-20T11:50:28;9.70;99.90
40253;DHT22;25972;51.854;4.534;2023-12-20T11:52:55;9.70;99.90
40253;DHT22;25972;51.854;4.534;2023-12-20T11:55:21;9.70;99.90
40253;DHT22;25972;51.854;4.534;2023-12-20T11:57:47;9.80;99.90
40253;DHT22;25972;51.854;4.534;2023-12-20T12:00:16;9.70;99.90
40253;DHT22;25972;51.854;4.534;2023-12-20T12:02:43;9.70;99.90
40253;DHT22;25972;51.854;4.534;2023-12-20T12:05:20;9.70;99.90
40253;DHT22;25972;51.854;4.534;2023-12-20T12:07:46;9.70;99.90
40253;DHT22;25972;51.854;4.534;2023-12-20T12:10:12;9.70;99.90
40253;DHT22;25972;51.854;4.534;2023-12-20T12:12:39;9.70;99.90
40253;DHT22;25972;51.854;4.534;2023-12-20T12:15:06;9.80;99.90
40253;DHT22;25972;51.854;4.534;2023-12-20T12:17:34;9.80;99.90
40253;DHT22;25972;51.854;4.534;2023-12-20T12:20:05;9.80;99.90
40253;DHT22;25972;51.854;4.534;2023-12-20T12:22:31;9.80;99.90
40253;DHT22;25972;51.854;4.534;2023-12-20T12:24:59;9.80;99.90
40253;DHT22;25972;51.854;4.534;2023-12-20T12:27:34;9.80;99.90
40253;DHT22;25972;51.854;4.534;2023-12-20T12:30:01;9.80;99.90
40253;DHT22;25972;51.854;4.534;2023-12-20T12:32:28;9.80;99.90
40253;DHT22;25972;51.854;4.534;2023-12-20T12:34:57;9.80;99.90
40253;DHT22;25972;51.854;4.534;2023-12-20T12:37:23;9.70;99.90
40253;DHT22;25972;51.854;4.534;2023-12-20T12:39:53;9.70;99.90
40253;DHT22;25972;51.854;4.534;2023-12-20T12:42:20;9.70;99.90
40253;DHT22;25972;51.854;4.534;2023-12-20T12:44:47;9.80;99.90
40253;DHT22;25972;51.854;4.534;2023-12-20T12:47:13;9.80;99.90
40253;DHT22;25972;51.854;4.534;2023-12-20T12:49:40;9.70;99.90
40253;DHT22;25972;51.854;4.534;2023-12-20T12:52:09;9.70;99.90
40253;DHT22;25972;51.854;4.534;2023-12-20T12:54:37;9.70;99.90
40253;DHT22;25972;51.854;4.534;2023-12-20T12:57:04;9.70;99.90
40253;DHT22;25972;51.854;4.534;2023-12-20T12:59:30;9.70;99.90
40253;DHT22;25972;51.854;4.534;2023-12-20T13:01:56;9.70;99.90
40253;DHT22;25972;51.854;4.534;2023-12-20T13:04:22;9.70;99.90
40253;DHT22;25972;51.854;4.534;2023-12-20T13:06:48;9.60;99.90
40253;DHT22;25972;51.854;4.534;2023-12-20T13:09:16;9.60;99.90
40253;DHT22;25972;51.854;4.534;2023-12-20T13:11:42;9.60;99.90
40253;DHT22;25972;51.854;4.534;2023-12-20T13:14:09;9.60;99.90
40253;DHT22;25972;51.854;4.534;2023-12-20T13:16:40;9.50;99.90
40253;DHT22;25972;51.854;4.534;2023-12-20T13:19:06;9.50;99.90
40253;DHT22;25972;51.854;4.534;2023-12-20T13:21:32;9.50;99.90
40253;DHT22;25972;51.854;4.534;2023-12-20T13:23:58;9.60;99.90
40253;DHT22;25972;51.854;4.534;2023-12-20T13:26:25;9.50;99.90
40253;DHT22;25972;51.854;4.534;2023-12-20T13:28:53;9.50;99.90
40253;DHT22;25972;51.854;4.534;2023-12-20T13:31:20;9.50;99.90
40253;DHT22;25972;51.854;4.534;2023-12-20T13:33:46;9.50;99.90
40253;DHT22;25972;51.854;4.534;2023-12-20T13:36:12;9.50;99.90
40253;DHT22;25972;51.854;4.534;2023-12-20T13:38:38;9.40;99.90
40253;DHT22;25972;51.854;4.534;2023-12-20T13:41:05;9.40;99.90
40253;DHT22;25972;51.854;4.534;2023-12-20T13:43:32;9.40;99.90
40253;DHT22;25972;51.854;4.534;2023-12-20T13:45:58;9.40;99.90
40253;DHT22;25972;51.854;4.534;2023-12-20T13:48:24;9.40;99.90
40253;DHT22;25972;51.854;4.534;2023-12-20T13:50:50;9.40;99.90
40253;DHT22;25972;51.854;4.534;2023-12-20T13:53:16;9.30;99.90
40253;DHT22;25972;51.854;4.534;2023-12-20T13:55:42;9.30;99.90
40253;DHT22;25972;51.854;4.534;2023-12-20T13:58:08;9.30;99.90
40253;DHT22;25972;51.854;4.534;2023-12-20T14:00:37;9.20;99.90
40253;DHT22;25972;51.854;4.534;2023-12-20T14:03:04;9.30;99.90
40253;DHT22;25972;51.854;4.534;2023-12-20T14:05:30;9.30;99.90
40253;DHT22;25972;51.854;4.534;2023-12-20T14:07:56;9.20;99.90
40253;DHT22;25972;51.854;4.534;2023-12-20T14:10:26;9.30;99.90
40253;DHT22;25972;51.854;4.534;2023-12-20T14:12:53;9.20;99.90
40253;DHT22;25972;51.854;4.534;2023-12-20T14:15:19;9.20;99.90
40253;DHT22;25972;51.854;4.534;2023-12-20T14:17:46;9.30;99.90
40253;DHT22;25972;51.854;4.534;2023-12-20T14:20:12;9.20;99.90
40253;DHT22;25972;51.854;4.534;2023-12-20T14:22:39;9.20;99.90
40253;DHT22;25972;51.854;4.534;2023-12-20T14:25:11;9.20;99.90
40253;DHT22;25972;51.854;4.534;2023-12-20T14:27:38;9.20;99.90
40253;DHT22;25972;51.854;4.534;2023-12-20T14:30:05;9.10;99.90
40253;DHT22;25972;51.854;4.534;2023-12-20T14:32:31;9.10;99.90
40253;DHT22;25972;51.854;4.534;2023-12-20T14:34:59;9.10;99.90
40253;DHT22;25972;51.854;4.534;2023-12-20T14:37:25;9.10;99.90
40253;DHT22;25972;51.854;4.534;2023-12-20T14:39:51;9.10;99.90
40253;DHT22;25972;51.854;4.534;2023-12-20T14:42:17;9.10;99.90
40253;DHT22;25972;51.854;4.534;2023-12-20T14:44:43;9.10;99.90
40253;DHT22;25972;51.854;4.534;2023-12-20T14:47:09;9.10;99.90
40253;DHT22;25972;51.854;4.534;2023-12-20T14:49:36;9.10;99.90
40253;DHT22;25972;51.854;4.534;2023-12-20T14:52:05;9.10;99.90
40253;DHT22;25972;51.854;4.534;2023-12-20T14:54:31;9.10;99.90
40253;DHT22;25972;51.854;4.534;2023-12-20T14:56:57;9.10;99.90
40253;DHT22;25972;51.854;4.534;2023-12-20T14:59:24;9.10;99.90
40253;DHT22;25972;51.854;4.534;2023-12-20T15:01:50;9.10;99.90
40253;DHT22;25972;51.854;4.534;2023-12-20T15:04:16;9.10;99.90
40253;DHT22;25972;51.854;4.534;2023-12-20T15:06:42;9.10;99.90
40253;DHT22;25972;51.854;4.534;2023-12-20T15:09:10;9.10;99.90
40253;DHT22;25972;51.854;4.534;2023-12-20T15:11:36;9.10;99.90
40253;DHT22;25972;51.854;4.534;2023-12-20T15:14:02;9.00;99.90
40253;DHT22;25972;51.854;4.534;2023-12-20T15:16:28;9.00;99.90
40253;DHT22;25972;51.854;4.534;2023-12-20T15:18:55;9.00;99.90
40253;DHT22;25972;51.854;4.534;2023-12-20T15:21:21;8.90;99.90
40253;DHT22;25972;51.854;4.534;2023-12-20T15:23:56;8.90;99.90
40253;DHT22;25972;51.854;4.534;2023-12-20T15:26:32;9.00;99.90
40253;DHT22;25972;51.854;4.534;2023-12-20T15:28:59;8.90;99.90
40253;DHT22;25972;51.854;4.534;2023-12-20T15:31:26;8.90;99.90
40253;DHT22;25972;51.854;4.534;2023-12-20T15:33:52;8.90;99.90
40253;DHT22;25972;51.854;4.534;2023-12-20T15:36:19;8.90;99.90
40253;DHT22;25972;51.854;4.534;2023-12-20T15:38:45;8.90;99.90
40253;DHT22;25972;51.854;4.534;2023-12-20T15:41:17;8.90;99.90
40253;DHT22;25972;51.854;4.534;2023-12-20T15:43:45;8.90;99.90